Time;durP1;ratioP1;P1;durP2;ratioP2;P2;SDS_P1;SDS_P2;PMS_P1;PMS_P2;Temp;Humidity;BMP_temperature;BMP_pressure;BME280_temperature;BME280_humidity;BME280_pressure;Samples;Min_cycle;Max_cycle;Signal;HPM_P1;HPM_P2
2021/10/29 00:01:19;;;;;;;16.58;9.00;;;;;;;11.63;75.47;100933.59;4993302;28;20034;-44
2021/10/29 00:03:47;;;;;;;14.32;8.85;;;;;;;11.64;74.61;100924.28;4992318;28;20050;-46
2021/10/29 00:06:14;;;;;;;15.88;9.70;;;;;;;11.63;74.89;100928.13;4992106;28;20089;-50
2021/10/29 00:08:42;;;;;;;13.98;8.88;;;;;;;11.62;75.03;100921.03;4992471;28;20042;-44
2021/10/29 00:11:10;;;;;;;18.30;9.57;;;;;;;11.64;75.26;100918.84;4992836;28;20397;-47
2021/10/29 00:13:37;;;;;;;14.77;9.05;;;;;;;11.68;75.08;100919.94;4992547;28;20076;-45
2021/10/29 00:16:05;;;;;;;15.23;9.32;;;;;;;11.71;74.56;100922.09;4993228;28;20409;-46
2021/10/29 00:18:33;;;;;;;14.55;8.98;;;;;;;11.68;74.00;100920.75;4992145;28;20084;-46
2021/10/29 00:21:00;;;;;;;15.18;8.88;;;;;;;11.63;74.61;100911.75;4992591;28;20050;-45
2021/10/29 00:23:30;;;;;;;19.13;9.73;;;;;;;11.60;74.64;100918.56;4991419;28;20770;-47
2021/10/29 00:25:59;;;;;;;13.57;8.63;;;;;;;11.59;75.05;100921.56;4991949;28;20485;-46
2021/10/29 00:28:26;;;;;;;13.63;8.32;;;;;;;11.57;74.84;100913.66;4993051;28;20386;-46
2021/10/29 00:30:55;;;;;;;13.95;8.65;;;;;;;11.57;75.04;100912.81;4992941;28;20034;-46
2021/10/29 00:33:23;;;;;;;13.88;8.98;;;;;;;11.59;75.19;100916.09;4992142;28;20508;-46
2021/10/29 00:35:50;;;;;;;16.88;9.90;;;;;;;11.62;75.01;100912.84;4992045;28;20050;-47
2021/10/29 00:38:18;;;;;;;16.30;8.18;;;;;;;11.64;74.77;100910.66;4992008;28;20093;-47
2021/10/29 00:40:46;;;;;;;12.52;8.57;;;;;;;11.64;74.81;100913.38;4992860;28;20061;-46
2021/10/29 00:43:13;;;;;;;14.57;8.45;;;;;;;11.64;74.13;100903.28;4991967;28;20062;-44
2021/10/29 00:45:41;;;;;;;14.68;8.90;;;;;;;11.63;74.13;100911.75;4992332;28;20046;-47
2021/10/29 00:48:12;;;;;;;14.13;8.98;;;;;;;11.62;74.62;100905.47;4992552;28;20054;-45
2021/10/29 00:50:40;;;;;;;13.63;8.85;;;;;;;11.65;74.69;100898.66;4991941;28;20049;-47
2021/10/29 00:53:09;;;;;;;14.52;8.35;;;;;;;11.66;74.23;100906.53;4992252;28;20035;-46
2021/10/29 00:55:36;;;;;;;13.48;7.90;;;;;;;11.66;74.30;100903.00;4992145;28;20042;-47
2021/10/29 00:58:04;;;;;;;11.88;8.35;;;;;;;11.65;73.85;100887.72;4992266;28;20035;-46
2021/10/29 01:00:31;;;;;;;12.55;8.43;;;;;;;11.64;74.23;100891.53;4992556;28;20046;-45
2021/10/29 01:03:00;;;;;;;12.23;7.85;;;;;;;11.62;73.73;100893.75;4992012;28;20065;-47
2021/10/29 01:05:28;;;;;;;15.25;8.20;;;;;;;11.60;74.60;100885.81;4991794;28;20093;-42
2021/10/29 01:07:58;;;;;;;14.32;8.38;;;;;;;11.61;74.40;100894.81;4991823;28;20042;-48
2021/10/29 01:10:30;;;;;;;13.82;8.55;;;;;;;11.63;74.14;100887.19;4992621;28;20161;-46
2021/10/29 01:12:58;;;;;;;16.45;8.55;;;;;;;11.63;74.63;100885.28;4991572;28;20046;-46
2021/10/29 01:15:26;;;;;;;13.25;7.90;;;;;;;11.63;74.62;100892.66;4992708;28;20050;-47
2021/10/29 01:17:54;;;;;;;13.25;8.32;;;;;;;11.61;74.60;100883.91;4991951;28;20053;-45
2021/10/29 01:20:23;;;;;;;12.00;7.65;;;;;;;11.62;74.80;100882.84;4992296;28;20053;-47
2021/10/29 01:22:51;;;;;;;15.48;8.00;;;;;;;11.65;74.85;100882.28;4991388;28;20097;-46
2021/10/29 01:25:19;;;;;;;13.82;8.07;;;;;;;11.65;73.88;100879.53;4992038;28;20081;-47
2021/10/29 01:27:47;;;;;;;12.80;7.85;;;;;;;11.62;73.98;100875.47;4992370;28;20053;-47
2021/10/29 01:30:15;;;;;;;13.18;7.85;;;;;;;11.61;74.00;100876.53;4994312;28;20034;-47
2021/10/29 01:32:43;;;;;;;13.23;7.88;;;;;;;11.62;74.05;100877.38;4995109;28;20038;-48
2021/10/29 01:35:11;;;;;;;13.68;8.38;;;;;;;11.59;74.30;100872.44;4995212;28;20100;-46
2021/10/29 01:37:40;;;;;;;12.75;8.05;;;;;;;11.56;74.54;100871.06;4994474;28;20097;-46
2021/10/29 01:40:10;;;;;;;12.45;7.40;;;;;;;11.52;74.84;100868.09;4994154;28;20404;-46
2021/10/29 01:42:38;;;;;;;13.20;8.73;;;;;;;11.51;74.71;100858.25;4994201;28;20053;-44
2021/10/29 01:45:06;;;;;;;12.30;7.97;;;;;;;11.54;73.86;100864.25;4995365;28;20516;-48
2021/10/29 01:47:37;;;;;;;11.45;7.60;;;;;;;11.55;75.05;100855.00;4995518;28;20470;-47
2021/10/29 01:50:06;;;;;;;12.63;7.68;;;;;;;11.54;74.58;100862.34;4995126;28;20042;-47
2021/10/29 01:52:34;;;;;;;14.65;7.97;;;;;;;11.49;74.46;100857.69;5009995;28;20051;-45
2021/10/29 01:55:02;;;;;;;12.70;8.10;;;;;;;11.45;74.71;100853.09;4995388;28;20039;-44
2021/10/29 01:57:30;;;;;;;13.68;8.05;;;;;;;11.48;74.97;100853.34;4996133;28;20046;-45
2021/10/29 01:59:58;;;;;;;12.55;8.48;;;;;;;11.50;74.82;100853.91;4995394;28;20071;-46
2021/10/29 02:02:26;;;;;;;12.55;7.82;;;;;;;11.43;74.70;100842.44;4994487;28;20034;-48
2021/10/29 02:04:54;;;;;;;14.48;8.30;;;;;;;11.40;75.17;100845.72;4994564;28;20523;-45
2021/10/29 02:07:21;;;;;;;11.77;7.95;;;;;;;11.41;74.67;100850.06;4995088;28;20050;-48
2021/10/29 02:09:49;;;;;;;13.35;7.72;;;;;;;11.40;74.53;100843.00;4994500;28;20030;-47
2021/10/29 02:12:16;;;;;;;12.80;7.78;;;;;;;11.39;75.60;100835.88;4994880;28;20039;-48
2021/10/29 02:14:44;;;;;;;14.07;7.85;;;;;;;11.40;75.13;100836.69;4994726;28;20409;-46
2021/10/29 02:17:11;;;;;;;13.05;8.25;;;;;;;11.40;75.61;100839.44;4994952;28;20097;-49
2021/10/29 02:19:39;;;;;;;13.63;8.05;;;;;;;11.39;75.19;100830.44;4994532;28;20093;-47
2021/10/29 02:22:06;;;;;;;11.60;7.68;;;;;;;11.40;75.36;100826.63;4994723;28;20497;-47
2021/10/29 02:24:34;;;;;;;12.65;7.72;;;;;;;11.41;75.16;100830.16;4994761;28;20042;-46
2021/10/29 02:27:03;;;;;;;11.98;7.35;;;;;;;11.40;75.61;100831.25;4994974;28;20505;-46
2021/10/29 02:29:31;;;;;;;13.10;7.88;;;;;;;11.41;74.84;100817.34;4995045;28;20049;-47
2021/10/29 02:31:59;;;;;;;16.02;8.45;;;;;;;11.41;74.67;100809.16;4993829;28;20505;-48
2021/10/29 02:34:26;;;;;;;13.10;7.60;;;;;;;11.41;75.48;100811.88;4994589;28;20555;-48
2021/10/29 02:36:54;;;;;;;14.05;7.40;;;;;;;11.41;75.00;100803.69;4994430;28;20081;-47
2021/10/29 02:39:21;;;;;;;15.10;8.60;;;;;;;11.40;74.81;100799.34;4994415;28;20046;-48
2021/10/29 02:41:49;;;;;;;12.88;7.25;;;;;;;11.41;75.26;100800.97;4992771;28;20058;-47
2021/10/29 02:44:17;;;;;;;13.20;7.90;;;;;;;11.39;74.87;100803.16;4994563;28;20046;-46
2021/10/29 02:46:47;;;;;;;16.17;7.80;;;;;;;11.38;74.92;100801.53;4994186;28;20409;-44
2021/10/29 02:49:15;;;;;;;10.75;7.35;;;;;;;11.35;75.59;100804.78;4994334;28;20046;-45
2021/10/29 02:51:42;;;;;;;12.65;8.00;;;;;;;11.35;74.99;100796.59;4992974;28;20387;-47
2021/10/29 02:54:10;;;;;;;11.65;7.40;;;;;;;11.33;74.92;100809.72;4992557;28;20049;-45
2021/10/29 02:56:38;;;;;;;12.77;8.07;;;;;;;11.34;75.84;100794.16;4994248;28;20047;-47
2021/10/29 02:59:05;;;;;;;11.55;7.40;;;;;;;11.36;75.94;100798.25;4994405;28;20039;-47
2021/10/29 03:01:33;;;;;;;12.52;7.30;;;;;;;11.36;75.68;100792.78;4993934;28;20089;-45
2021/10/29 03:04:01;;;;;;;12.85;7.38;;;;;;;11.36;75.46;100794.72;4990953;28;20421;-47
2021/10/29 03:06:28;;;;;;;12.77;7.57;;;;;;;11.38;75.17;100789.81;4993706;28;20081;-46
2021/10/29 03:08:56;;;;;;;12.57;7.47;;;;;;;11.36;75.69;100792.78;4994391;28;20441;-47
2021/10/29 03:11:24;;;;;;;12.10;7.22;;;;;;;11.34;74.71;100784.06;4993803;28;20049;-47
2021/10/29 03:13:52;;;;;;;12.70;7.90;;;;;;;11.31;75.09;100792.81;4993721;28;20050;-47
2021/10/29 03:16:20;;;;;;;13.07;7.35;;;;;;;11.31;74.99;100790.06;4993628;28;20038;-47
2021/10/29 03:18:47;;;;;;;14.45;7.95;;;;;;;11.30;75.69;100789.25;4993752;28;20042;-48
2021/10/29 03:21:15;;;;;;;11.55;7.15;;;;;;;11.28;75.80;100788.72;4993555;28;20046;-46
2021/10/29 03:23:43;;;;;;;13.95;7.75;;;;;;;11.28;76.25;100785.97;4993441;28;20409;-47
2021/10/29 03:26:11;;;;;;;13.40;7.32;;;;;;;11.30;75.14;100782.97;4989582;28;20066;-48
2021/10/29 03:28:38;;;;;;;11.43;7.78;;;;;;;11.30;75.86;100791.16;4993498;28;20045;-45
2021/10/29 03:31:06;;;;;;;11.32;7.20;;;;;;;11.28;75.77;100782.41;4993510;28;20042;-47
2021/10/29 03:33:39;;;;;;;13.90;7.47;;;;;;;11.25;76.02;100783.78;4993663;28;20053;-47
2021/10/29 03:36:07;;;;;;;13.43;6.95;;;;;;;11.24;75.56;100775.91;4993421;28;20065;-46
2021/10/29 03:38:46;;;;;;;10.05;7.00;;;;;;;11.23;76.27;100776.97;4993164;28;20050;-47
2021/10/29 03:41:20;;;;;;;12.70;6.90;;;;;;;11.26;76.32;100771.78;4993700;28;20051;-45
2021/10/29 03:46:26;;;;;;;12.73;7.18;;;;;;;11.29;76.25;100765.78;4993171;28;20035;-46
2021/10/29 03:51:37;;;;;;;13.00;7.55;;;;;;;11.27;75.96;100784.34;4993407;28;20465;-46
2021/10/29 03:54:09;;;;;;;11.90;7.32;;;;;;;11.24;75.71;100781.34;4992400;28;20030;-45
2021/10/29 03:59:34;;;;;;;14.20;7.07;;;;;;;11.26;76.18;100777.25;4971371;28;20540;-47
2021/10/29 04:02:04;;;;;;;14.85;7.00;;;;;;;11.27;76.17;100767.16;4965031;28;20043;-46
2021/10/29 04:04:32;;;;;;;10.73;6.90;;;;;;;11.26;76.26;100771.78;4959727;28;20065;-47
2021/10/29 04:07:00;;;;;;;15.50;7.22;;;;;;;11.25;76.27;100763.88;4960460;28;20133;-46
2021/10/29 04:09:27;;;;;;;12.88;6.82;;;;;;;11.24;76.05;100771.25;4969581;28;20414;-46
2021/10/29 04:11:55;;;;;;;10.07;6.85;;;;;;;11.26;76.85;100760.06;4967742;28;20055;-44
2021/10/29 04:14:27;;;;;;;12.55;6.57;;;;;;;11.26;75.91;100773.72;4960712;28;20437;-46
2021/10/29 04:16:55;;;;;;;11.63;7.07;;;;;;;11.27;76.86;100767.16;4971000;28;20059;-46
2021/10/29 04:19:23;;;;;;;12.00;7.18;;;;;;;11.28;76.13;100760.59;4971165;28;20046;-47
2021/10/29 04:21:51;;;;;;;11.52;6.80;;;;;;;11.28;76.40;100764.16;4969059;28;20042;-46
2021/10/29 04:24:18;;;;;;;9.95;6.10;;;;;;;11.28;76.26;100760.59;4967547;28;20057;-47
2021/10/29 04:26:47;;;;;;;13.13;8.20;;;;;;;11.26;76.44;100755.44;4971038;28;20054;-46
2021/10/29 04:29:17;;;;;;;12.82;7.10;;;;;;;11.25;76.76;100766.59;4970844;28;20150;-44
2021/10/29 04:31:51;;;;;;;11.73;7.03;;;;;;;11.24;76.23;100756.81;4966737;28;20050;-47
2021/10/29 04:34:23;;;;;;;11.25;6.97;;;;;;;11.20;76.60;100747.53;4947080;29;20509;-47
2021/10/29 04:36:52;;;;;;;12.65;6.85;;;;;;;11.16;77.21;100746.44;4988578;28;20069;-48
2021/10/29 04:39:20;;;;;;;11.68;6.97;;;;;;;11.15;77.01;100751.06;4992580;28;20042;-44
2021/10/29 04:41:50;;;;;;;11.48;6.85;;;;;;;11.17;77.17;100748.09;4992072;28;20050;-46
2021/10/29 04:44:22;;;;;;;10.07;6.13;;;;;;;11.18;77.16;100752.44;4991465;28;20038;-46
2021/10/29 04:46:50;;;;;;;13.68;6.50;;;;;;;11.17;76.48;100742.63;4992797;28;20454;-48
2021/10/29 04:49:18;;;;;;;11.18;6.93;;;;;;;11.15;77.17;100747.53;4993072;28;20047;-48
2021/10/29 04:51:46;;;;;;;11.00;6.80;;;;;;;11.13;77.15;100744.25;4992480;28;20152;-46
2021/10/29 04:54:14;;;;;;;10.63;7.00;;;;;;;11.11;77.34;100743.72;4992391;28;20413;-48
2021/10/29 04:56:43;;;;;;;12.52;6.90;;;;;;;11.07;76.93;100740.72;4991159;28;20571;-49
2021/10/29 04:59:14;;;;;;;11.57;7.07;;;;;;;11.02;78.00;100738.00;4992616;28;20070;-45
2021/10/29 05:01:43;;;;;;;13.57;7.18;;;;;;;11.02;77.52;100733.34;4992411;28;20576;-48
2021/10/29 05:04:12;;;;;;;12.20;7.03;;;;;;;11.01;77.53;100726.25;4992927;28;20501;-46
2021/10/29 05:06:39;;;;;;;11.10;6.63;;;;;;;11.04;78.19;100725.72;4996116;28;20058;-47
2021/10/29 05:09:07;;;;;;;13.30;7.03;;;;;;;11.08;78.23;100731.44;4996307;28;20050;-48
2021/10/29 05:11:35;;;;;;;14.80;6.88;;;;;;;11.10;77.90;100726.53;4996121;28;20069;-48
2021/10/29 05:14:03;;;;;;;12.02;7.28;;;;;;;11.12;77.59;100721.63;4995301;28;20061;-50
2021/10/29 05:16:30;;;;;;;13.73;7.03;;;;;;;11.12;77.86;100720.81;4992973;28;20512;-48
2021/10/29 05:18:58;;;;;;;13.90;6.93;;;;;;;11.09;78.16;100714.81;4996154;28;20046;-48
2021/10/29 05:21:26;;;;;;;14.02;6.78;;;;;;;11.07;77.44;100714.28;4995368;28;20516;-45
2021/10/29 05:23:53;;;;;;;11.27;7.20;;;;;;;11.02;78.17;100711.53;4996258;28;20057;-48
2021/10/29 05:26:21;;;;;;;11.70;7.05;;;;;;;10.98;78.61;100709.63;4995081;28;20045;-47
2021/10/29 05:28:49;;;;;;;11.75;6.88;;;;;;;10.94;78.52;100716.72;4995588;28;20493;-47
2021/10/29 05:31:16;;;;;;;10.80;7.53;;;;;;;10.90;78.55;100713.72;4995682;28;20042;-46
2021/10/29 05:33:44;;;;;;;13.70;7.53;;;;;;;10.91;79.00;100704.44;4995540;28;20046;-47
2021/10/29 05:36:12;;;;;;;11.80;7.07;;;;;;;10.93;79.12;100705.00;4984505;28;20042;-47
2021/10/29 05:38:39;;;;;;;13.38;7.45;;;;;;;10.96;78.34;100706.38;4993729;28;20505;-50
2021/10/29 05:41:07;;;;;;;11.20;7.03;;;;;;;10.96;78.76;100707.19;4995559;28;20042;-48
2021/10/29 05:43:35;;;;;;;11.70;7.45;;;;;;;10.92;78.58;100703.38;4994584;28;20066;-47
2021/10/29 05:46:02;;;;;;;12.93;7.07;;;;;;;10.92;78.82;100700.66;4993549;28;20552;-47
2021/10/29 05:48:30;;;;;;;12.48;6.50;;;;;;;10.93;78.46;100696.81;4990964;28;20046;-47
2021/10/29 05:51:08;;;;;;;11.35;7.28;;;;;;;10.93;79.11;100699.56;4646797;28;10000147;-44
2021/10/29 05:56:17;;;;;;;17.25;8.43;;;;;;;10.95;79.33;100696.56;5005058;28;20042;-48
2021/10/29 05:58:44;;;;;;;10.90;7.25;;;;;;;10.96;78.82;100695.47;4991839;28;20073;-43
2021/10/29 06:01:12;;;;;;;15.77;7.25;;;;;;;10.95;78.69;100694.66;4991837;28;20050;-47
2021/10/29 06:03:41;;;;;;;13.35;7.10;;;;;;;10.95;78.54;100689.19;4992718;28;20047;-44
2021/10/29 06:06:09;;;;;;;14.25;7.88;;;;;;;10.97;79.02;100687.03;4991848;28;20045;-48
2021/10/29 06:08:37;;;;;;;11.93;7.10;;;;;;;10.98;79.05;100699.53;4985743;28;20100;-47
2021/10/29 06:11:05;;;;;;;12.93;7.13;;;;;;;10.97;78.06;100684.28;4990621;28;20047;-47
2021/10/29 06:13:32;;;;;;;10.50;6.82;;;;;;;10.98;78.88;100687.81;4991452;28;20038;-46
2021/10/29 06:16:00;;;;;;;12.05;7.18;;;;;;;10.95;79.02;100683.75;4989649;28;20046;-50
2021/10/29 06:18:27;;;;;;;10.68;6.97;;;;;;;10.94;78.89;100692.19;4991002;28;20089;-46
2021/10/29 06:20:57;;;;;;;15.60;8.00;;;;;;;10.93;79.29;100683.19;4992289;28;20092;-46
2021/10/29 06:23:35;;;;;;;15.00;7.50;;;;;;;10.93;79.20;100691.38;4992158;28;20049;-46
2021/10/29 06:26:10;;;;;;;15.38;7.40;;;;;;;10.94;78.70;100690.28;4991264;28;20097;-46
2021/10/29 06:28:42;;;;;;;13.88;7.10;;;;;;;10.97;79.24;100688.94;4983000;28;20088;-46
2021/10/29 06:31:12;;;;;;;13.82;7.45;;;;;;;10.95;78.83;100688.38;4993987;28;20042;-44
2021/10/29 06:33:41;;;;;;;13.15;7.45;;;;;;;10.95;78.66;100696.56;4993681;28;20034;-44
2021/10/29 06:36:09;;;;;;;12.88;7.22;;;;;;;10.92;79.23;100689.75;4993349;28;20370;-46
2021/10/29 06:38:41;;;;;;;13.63;7.32;;;;;;;10.90;79.31;100683.75;4993503;28;20053;-47
2021/10/29 06:41:09;;;;;;;11.55;6.95;;;;;;;10.94;79.78;100684.81;4993065;28;20034;-48
2021/10/29 06:43:43;;;;;;;15.35;6.90;;;;;;;10.97;79.15;100680.75;4992636;28;20077;-46
2021/10/29 06:46:32;;;;;;;18.48;7.53;;;;;;;10.95;79.43;100683.75;4988268;28;20047;-47
2021/10/29 07:02:54;;;;;;;15.93;6.88;;;;;;;11.03;79.09;100685.91;4993816;28;20034;-47
2021/10/29 07:05:30;;;;;;;16.80;7.70;;;;;;;11.01;78.91;100682.63;4993051;28;20046;-48
2021/10/29 07:39:57;;;;;;;13.32;7.53;;;;;;;10.96;79.17;100685.38;4992307;28;20441;-48
2021/10/29 07:41:24;;;;;;;;;;;;;;;11.01;79.28;100679.91;4993490;28;20081;-49
2021/10/29 07:44:00;;;;;;;13.98;7.60;;;;;;;11.02;79.19;100678.03;4992685;28;19921;-51
2021/10/29 07:46:30;;;;;;;15.18;6.68;;;;;;;11.03;79.36;100679.63;4992141;28;20042;-47
2021/10/29 07:48:58;;;;;;;12.20;7.10;;;;;;;11.04;78.62;100665.75;4993271;28;20445;-51
2021/10/29 07:51:25;;;;;;;14.38;7.00;;;;;;;11.05;78.86;100678.28;4993699;28;20046;-47
2021/10/29 07:53:53;;;;;;;15.10;7.22;;;;;;;11.07;79.53;100676.09;4992900;28;20090;-46
2021/10/29 07:56:21;;;;;;;16.70;7.15;;;;;;;11.08;79.37;100677.72;4992975;28;20045;-49
2021/10/29 07:59:09;;;;;;;12.38;7.10;;;;;;;11.09;79.54;100684.81;4986106;28;20057;-48
2021/10/29 08:01:36;;;;;;;11.80;6.80;;;;;;;11.12;79.50;100679.91;4993041;28;20096;-47
2021/10/29 08:04:09;;;;;;;11.55;6.80;;;;;;;11.15;79.77;100682.91;4989785;28;20051;-47
2021/10/29 08:06:37;;;;;;;12.82;6.88;;;;;;;11.17;79.05;100679.91;4992146;28;20034;-49
2021/10/29 08:09:06;;;;;;;11.02;7.05;;;;;;;11.18;79.16;100681.53;4990792;28;20129;-48
2021/10/29 08:11:33;;;;;;;13.65;7.88;;;;;;;11.20;79.49;100679.34;4992249;28;20042;-48
2021/10/29 08:14:01;;;;;;;15.23;7.38;;;;;;;11.19;78.92;100683.19;4992703;28;20042;-47
2021/10/29 08:16:29;;;;;;;13.55;7.70;;;;;;;11.18;79.28;100684.25;4992286;28;20049;-48
2021/10/29 08:18:56;;;;;;;11.77;7.60;;;;;;;11.20;78.98;100669.25;4992506;28;20093;-47
2021/10/29 08:21:24;;;;;;;14.55;8.20;;;;;;;11.19;79.18;100673.06;4991302;28;20038;-45
2021/10/29 08:23:51;;;;;;;20.95;9.50;;;;;;;11.24;80.34;100664.06;4992415;28;20047;-47
2021/10/29 08:26:19;;;;;;;14.27;7.65;;;;;;;11.35;80.42;100662.94;4991824;28;20037;-47
2021/10/29 08:28:46;;;;;;;13.27;6.95;;;;;;;11.39;78.65;100661.28;4992525;28;20046;-45
2021/10/29 08:31:14;;;;;;;13.18;7.40;;;;;;;11.40;79.07;100659.38;4992140;28;20042;-47
2021/10/29 08:33:41;;;;;;;15.50;7.82;;;;;;;11.39;78.78;100655.84;4992227;28;20042;-47
2021/10/29 08:36:10;;;;;;;15.52;7.70;;;;;;;11.39;79.40;100655.84;4991063;28;20505;-47
2021/10/29 08:38:39;;;;;;;13.70;7.32;;;;;;;11.43;78.56;100646.00;4991784;28;20038;-49
2021/10/29 08:41:27;;;;;;;10.60;7.20;;;;;;;11.43;78.55;100651.47;4991646;28;20170;-50
2021/10/29 08:43:56;;;;;;;13.95;7.20;;;;;;;11.44;78.94;100647.63;4991998;28;20043;-47
2021/10/29 08:46:27;;;;;;;17.65;7.80;;;;;;;11.45;79.26;100648.47;4991407;28;20050;-48
2021/10/29 08:48:57;;;;;;;14.32;7.72;;;;;;;11.44;78.64;100639.44;4992546;28;20054;-45
2021/10/29 08:51:26;;;;;;;15.10;7.30;;;;;;;11.45;79.14;100645.75;4986865;28;20047;-48
2021/10/29 08:53:55;;;;;;;11.48;7.22;;;;;;;11.44;79.18;100642.19;4983634;28;20045;-46
2021/10/29 08:56:25;;;;;;;11.23;7.32;;;;;;;11.47;78.96;100632.63;4991671;28;20057;-44
2021/10/29 08:59:09;;;;;;;14.40;7.47;;;;;;;11.53;78.47;100631.50;4991659;28;20497;-46
2021/10/29 09:31:24;;;;;;;12.10;7.25;;;;;;;11.78;78.79;100584.16;4930342;29;20044;-46
2021/10/29 09:33:11;;;;;;;14.30;7.10;;;;;;;11.89;78.09;100577.59;4859255;29;20057;-47
2021/10/29 09:35:40;;;;;;;13.25;6.82;;;;;;;11.95;78.16;100570.16;4855371;29;20054;-48
2021/10/29 09:38:08;;;;;;;13.27;7.20;;;;;;;11.99;78.26;100582.16;4855856;29;20053;-47
2021/10/29 09:41:00;;;;;;;14.52;8.15;;;;;;;12.06;78.16;100571.75;4856886;29;20041;-44
2021/10/29 09:43:33;;;;;;;12.95;7.60;;;;;;;12.10;77.68;100570.06;4840365;29;20049;-47
2021/10/29 09:46:04;;;;;;;13.27;6.78;;;;;;;12.12;77.49;100575.25;4851692;29;20045;-46
2021/10/29 09:48:43;;;;;;;13.13;7.45;;;;;;;12.14;78.08;100570.31;4856522;29;20459;-46
2021/10/29 09:51:13;;;;;;;11.90;7.30;;;;;;;12.15;77.95;100566.50;4914604;29;20059;-43
2021/10/29 09:58:51;;;;;;;11.48;6.47;;;;;;;12.30;77.20;100565.56;4915958;29;20416;-46
2021/10/29 10:01:23;;;;;;;13.60;7.18;;;;;;;12.32;76.75;100564.16;4916095;29;20507;-47
2021/10/29 10:03:53;;;;;;;14.18;6.80;;;;;;;12.36;76.94;100562.50;4915156;29;20176;-45
2021/10/29 10:06:21;;;;;;;14.52;7.85;;;;;;;12.45;76.99;100564.59;4914343;29;20541;-47
2021/10/29 10:08:54;;;;;;;11.90;6.85;;;;;;;12.48;76.70;100562.13;4931028;28;20050;-46
2021/10/29 10:11:28;;;;;;;17.75;7.63;;;;;;;12.55;76.52;100562.63;4994443;28;20043;-47
2021/10/29 10:13:57;;;;;;;12.77;7.20;;;;;;;12.58;77.24;100556.56;4994567;28;20042;-48
2021/10/29 10:16:29;;;;;;;17.38;8.00;;;;;;;12.64;76.78;100551.84;4994197;28;20049;-47
2021/10/29 10:18:57;;;;;;;16.02;8.15;;;;;;;12.66;76.50;100552.38;4981692;28;20094;-45
2021/10/29 10:21:28;;;;;;;12.45;7.20;;;;;;;12.70;76.15;100552.59;4993392;28;20049;-46
2021/10/29 10:23:59;;;;;;;11.60;7.43;;;;;;;12.73;76.83;100552.84;4994279;28;20370;-49
2021/10/29 10:43:35;;;;;;;12.40;7.13;;;;;;;12.92;76.26;100555.66;4993795;28;20058;-45
2021/10/29 10:49:08;;;;;;;13.07;6.78;;;;;;;13.00;76.82;100548.75;4993696;28;20035;-46
2021/10/29 10:51:55;;;;;;;14.02;8.63;;;;;;;13.01;77.24;100533.94;4988789;28;20424;-45
2021/10/29 10:54:41;;;;;;;17.13;8.55;;;;;;;13.08;77.11;100541.81;4993272;28;20030;-46
2021/10/29 11:11:10;;;;;;;12.00;5.93;;;;;;;13.56;75.52;100515.22;4992395;28;20524;-46
2021/10/29 11:13:44;;;;;;;22.25;13.40;;;;;;;13.62;75.30;100508.56;4984470;28;20054;-47
2021/10/29 11:16:29;;;;;;;28.95;14.88;;;;;;;13.71;74.57;100505.16;4992774;28;20485;-43
2021/10/29 11:19:07;;;;;;;15.85;6.85;;;;;;;13.76;74.66;100494.94;4992363;28;20046;-44
2021/10/29 11:21:36;;;;;;;14.15;5.45;;;;;;;13.86;73.83;100469.34;4982099;28;20058;-48
2021/10/29 11:24:09;;;;;;;28.13;12.35;;;;;;;13.90;73.75;100459.38;4992055;28;20093;-46
2021/10/29 11:26:40;;;;;;;17.77;8.70;;;;;;;13.90;73.79;100453.09;4992716;28;20050;-46
2021/10/29 11:29:08;;;;;;;16.67;9.45;;;;;;;13.91;73.96;100457.47;4992443;28;20038;-44
2021/10/29 11:31:50;;;;;;;9.77;4.93;;;;;;;13.89;73.76;100457.78;4993140;28;20097;-46
2021/10/29 11:34:18;;;;;;;11.80;4.80;;;;;;;13.98;73.63;100450.50;4993201;28;20046;-47
2021/10/29 11:36:51;;;;;;;32.20;16.73;;;;;;;13.99;73.64;100443.91;4993057;28;20034;-49
2021/10/29 11:39:23;;;;;;;9.98;5.47;;;;;;;13.97;73.69;100432.41;4992872;28;20053;-45
2021/10/29 11:41:52;;;;;;;10.13;4.80;;;;;;;13.97;74.03;100435.16;4992334;28;20058;-47
2021/10/29 11:44:22;;;;;;;9.95;5.20;;;;;;;13.98;73.73;100427.78;4992770;28;20492;-47
2021/10/29 11:46:54;;;;;;;10.32;4.95;;;;;;;14.02;73.73;100421.41;4993116;28;20031;-45
2021/10/29 11:49:30;;;;;;;10.23;4.63;;;;;;;14.10;73.21;100411.66;4993324;28;20042;-47
2021/10/29 11:52:01;;;;;;;11.20;4.90;;;;;;;14.14;73.46;100420.09;4992734;28;20389;-47
2021/10/29 11:54:43;;;;;;;12.13;4.97;;;;;;;14.15;73.27;100408.03;4993117;28;20053;-47
2021/10/29 12:00:20;;;;;;;9.43;5.05;;;;;;;14.09;73.80;100398.25;4951196;29;20043;-46
2021/10/29 12:06:11;;;;;;;15.70;5.63;;;;;;;14.11;74.20;100396.03;4942144;29;20079;-47
2021/10/29 12:08:39;;;;;;;11.43;5.68;;;;;;;14.10;74.58;100405.38;4951570;28;20046;-47
2021/10/29 12:11:08;;;;;;;13.30;5.80;;;;;;;14.13;74.61;100408.31;4951538;29;20055;-46
2021/10/29 12:13:42;;;;;;;14.13;5.50;;;;;;;14.18;74.21;100413.69;4951490;28;20054;-47
2021/10/29 12:16:15;;;;;;;13.18;6.10;;;;;;;14.22;74.29;100400.22;4951939;29;20043;-46
2021/10/29 12:18:55;;;;;;;11.77;5.72;;;;;;;14.21;74.54;100393.09;4951031;29;20039;-46
2021/10/29 12:21:25;;;;;;;12.23;6.38;;;;;;;14.29;74.46;100386.94;4951411;29;20058;-47
2021/10/29 12:23:53;;;;;;;11.18;6.28;;;;;;;14.34;74.43;100397.81;4952117;29;20051;-47
2021/10/29 12:26:23;;;;;;;11.65;6.50;;;;;;;14.36;74.50;100386.50;4951492;28;20039;-48
2021/10/29 12:28:55;;;;;;;10.93;5.80;;;;;;;14.35;74.66;100382.16;4951199;29;20427;-44
2021/10/29 12:31:52;;;;;;;13.80;7.00;;;;;;;14.37;74.80;100375.25;4951713;29;20054;-47
2021/10/29 13:02:23;;;;;;;6.75;3.55;;;;;;;15.22;67.71;100318.00;4895636;29;20052;-47
2021/10/29 13:04:55;;;;;;;34.47;17.63;;;;;;;15.33;69.41;100313.91;4912816;29;20045;-48
2021/10/29 13:07:27;;;;;;;9.88;3.50;;;;;;;15.35;67.29;100308.13;4912455;29;20053;-47
2021/10/29 13:10:06;;;;;;;8.23;3.70;;;;;;;15.44;67.27;100313.66;4912754;29;20511;-47
2021/10/29 13:13:01;;;;;;;23.42;12.95;;;;;;;15.45;67.08;100310.59;4912669;29;20044;-48
2021/10/29 13:15:24;;;;;;;10.88;4.68;;;;;;;15.45;67.29;100312.53;4912171;29;20115;-48
2021/10/29 13:17:57;;;;;;;10.00;4.45;;;;;;;15.43;67.49;100312.03;4912484;29;20037;-47
2021/10/29 13:36:39;;;;;;;42.40;21.38;;;;;;;15.52;69.86;100299.19;4994431;28;20035;-48
2021/10/29 13:53:21;;;;;;;46.58;23.73;;;;;;;15.83;69.94;100298.41;4993095;28;20418;-45
2021/10/29 13:58:30;;;;;;;50.42;25.48;;;;;;;15.81;75.47;100295.16;4994175;28;20521;-45
2021/10/29 14:31:26;;;;;;;30.33;17.05;;;;;;;16.08;70.80;100316.91;4972845;28;20158;-47
2021/10/29 14:34:33;;;;;;;25.63;13.48;;;;;;;16.01;70.73;100327.56;4960896;28;20049;-48
2021/10/29 15:25:17;;;;;;;;;;;;;;;15.88;75.55;100337.53;4991719;28;20038;-46
2021/10/29 15:30:44;;;;;;;12.68;6.18;;;;;;;15.77;71.56;100328.72;4991454;28;20480;-46
2021/10/29 15:33:23;;;;;;;12.65;6.53;;;;;;;15.73;70.28;100329.72;4990765;28;20034;-46
2021/10/29 15:51:35;;;;;;;13.82;6.05;;;;;;;15.77;72.28;100338.91;4990501;28;20048;-47
2021/10/29 15:54:07;;;;;;;14.77;6.78;;;;;;;15.71;72.24;100341.00;4991099;28;20042;-47
2021/10/29 15:59:34;;;;;;;9.68;5.00;;;;;;;15.68;72.73;100351.75;4990709;28;20066;-46
2021/10/29 16:02:12;;;;;;;13.45;6.72;;;;;;;15.62;72.13;100347.53;4990684;28;20050;-47
2021/10/29 16:18:32;;;;;;;10.18;4.90;;;;;;;15.70;71.75;100355.84;4990489;28;19926;-46
2021/10/29 16:20:59;;;;;;;13.75;5.07;;;;;;;15.65;72.19;100355.94;4990254;28;20057;-47
2021/10/29 16:23:29;;;;;;;11.57;5.57;;;;;;;15.60;72.68;100361.56;4990835;28;20049;-47
2021/10/29 16:26:10;;;;;;;13.23;5.80;;;;;;;15.59;73.18;100379.19;4990621;28;20042;-48
2021/10/29 16:28:38;;;;;;;18.38;5.63;;;;;;;15.59;75.46;100387.41;4988976;28;20485;-47
2021/10/29 16:31:08;;;;;;;12.13;5.65;;;;;;;15.57;76.67;100399.84;4989391;28;20044;-50
2021/10/29 16:33:36;;;;;;;13.02;6.65;;;;;;;15.61;78.11;100396.16;4990353;28;20089;-44
2021/10/29 16:36:05;;;;;;;13.88;7.43;;;;;;;15.67;78.71;100400.38;4990119;28;20049;-47